createdAt,value
2017-05-30T00:02:25.119Z,20.30
2017-05-30T00:04:53.342Z,20.40
2017-05-30T00:07:21.560Z,20.50
2017-05-30T00:09:49.780Z,20.60
2017-05-30T00:12:17.995Z,20.60
2017-05-30T00:14:46.216Z,20.70
2017-05-30T00:17:14.439Z,20.80
2017-05-30T00:19:42.660Z,20.70
2017-05-30T00:22:10.875Z,20.80
2017-05-30T00:24:39.096Z,20.90
2017-05-30T00:27:07.316Z,20.90
2017-05-30T00:29:35.536Z,21.00
2017-05-30T00:32:03.756Z,21.00
2017-05-30T00:34:31.976Z,20.90
2017-05-30T00:37:00.190Z,21.00
2017-05-30T00:39:28.411Z,20.90
2017-05-30T00:41:56.623Z,20.90
2017-05-30T00:44:24.856Z,21.00
2017-05-30T00:46:53.063Z,20.90
2017-05-30T00:49:21.356Z,20.80
2017-05-30T00:51:49.526Z,20.80
2017-05-30T00:54:17.742Z,20.80
2017-05-30T00:56:45.958Z,20.50
2017-05-30T00:59:14.179Z,20.40
2017-05-30T01:01:42.402Z,20.30
2017-05-30T01:04:10.604Z,20.30
2017-05-30T01:06:38.841Z,20.30
2017-05-30T01:09:07.071Z,20.40
2017-05-30T01:11:35.282Z,20.50
2017-05-30T01:14:03.499Z,20.50
2017-05-30T01:16:31.723Z,20.70
2017-05-30T01:18:59.944Z,20.60
2017-05-30T01:21:28.173Z,20.60
2017-05-30T01:23:56.383Z,20.60
2017-05-30T01:26:24.624Z,20.50
2017-05-30T01:28:52.835Z,20.60
2017-05-30T01:31:21.052Z,20.40
2017-05-30T01:33:49.267Z,20.00
2017-05-30T01:36:17.503Z,19.70
2017-05-30T01:38:45.723Z,19.70
2017-05-30T01:41:13.943Z,19.80
2017-05-30T01:43:42.160Z,19.20
2017-05-30T01:46:10.378Z,19.10
2017-05-30T01:48:38.595Z,19.20
2017-05-30T01:51:06.808Z,19.40
2017-05-30T01:53:35.033Z,19.50
2017-05-30T01:56:03.247Z,19.60
2017-05-30T01:58:32.038Z,19.70
2017-05-30T02:01:00.258Z,19.70
2017-05-30T02:03:28.467Z,19.60
2017-05-30T02:05:56.691Z,19.50
2017-05-30T02:08:24.907Z,19.40
2017-05-30T02:10:53.144Z,19.20
2017-05-30T02:13:21.363Z,19.20
2017-05-30T02:15:49.581Z,19.30
2017-05-30T02:18:17.803Z,19.30
2017-05-30T02:20:46.028Z,19.00
2017-05-30T02:23:14.246Z,18.80
2017-05-30T02:25:42.478Z,18.60
2017-05-30T02:28:10.684Z,18.70
2017-05-30T02:30:38.907Z,18.90
2017-05-30T02:33:07.125Z,18.80
2017-05-30T02:35:35.352Z,18.80
2017-05-30T02:38:03.565Z,18.70
2017-05-30T02:40:31.796Z,18.70
2017-05-30T02:43:00.012Z,18.80
2017-05-30T02:45:28.219Z,18.80
2017-05-30T02:47:56.444Z,18.90
2017-05-30T02:50:24.655Z,18.90
2017-05-30T02:52:52.875Z,18.90
2017-05-30T02:55:21.096Z,18.90
2017-05-30T02:57:49.312Z,18.70
2017-05-30T03:00:17.527Z,18.70
2017-05-30T03:02:45.752Z,18.90
2017-05-30T03:05:13.975Z,18.30
2017-05-30T03:07:42.201Z,18.30
2017-05-30T03:10:10.423Z,18.30
2017-05-30T03:12:38.653Z,18.10
2017-05-30T03:15:06.871Z,18.10
2017-05-30T03:17:35.087Z,18.20
2017-05-30T03:20:03.309Z,18.40
2017-05-30T03:22:31.523Z,18.40
2017-05-30T03:24:59.747Z,18.40
2017-05-30T03:27:27.963Z,18.50
2017-05-30T03:29:56.182Z,18.60
2017-05-30T03:32:24.390Z,18.60
2017-05-30T03:34:52.612Z,18.60
2017-05-30T03:37:20.836Z,18.60
2017-05-30T03:39:49.060Z,18.60
2017-05-30T03:42:17.282Z,18.50
2017-05-30T03:44:45.566Z,18.50
2017-05-30T03:47:13.775Z,18.50
2017-05-30T03:49:41.984Z,18.60
2017-05-30T03:52:10.200Z,18.50
2017-05-30T03:54:38.415Z,18.60
2017-05-30T03:57:06.643Z,18.70
2017-05-30T03:59:34.860Z,18.80
2017-05-30T04:02:03.079Z,18.60
2017-05-30T04:04:31.296Z,18.50
2017-05-30T04:06:59.509Z,18.70
2017-05-30T04:09:27.728Z,18.80
2017-05-30T04:11:55.945Z,18.80
2017-05-30T04:14:24.168Z,18.90
2017-05-30T04:16:52.391Z,19.00
2017-05-30T04:19:20.614Z,19.10
2017-05-30T04:21:48.857Z,19.10
2017-05-30T04:24:17.072Z,19.00
2017-05-30T04:26:45.289Z,18.90
2017-05-30T04:29:13.507Z,18.60
2017-05-30T04:31:41.726Z,18.50
2017-05-30T04:34:09.952Z,18.80
2017-05-30T04:36:38.167Z,18.90
2017-05-30T04:39:06.394Z,19.20
2017-05-30T04:41:34.611Z,19.30
2017-05-30T04:44:02.827Z,19.40
2017-05-30T04:46:31.056Z,19.50
2017-05-30T04:48:59.278Z,19.60
2017-05-30T04:51:27.494Z,19.60
2017-05-30T04:53:55.716Z,19.20
2017-05-30T04:56:23.927Z,19.20
2017-05-30T04:58:52.152Z,19.40
2017-05-30T05:01:20.363Z,19.60
2017-05-30T05:03:48.574Z,19.80
2017-05-30T05:06:16.799Z,19.80
2017-05-30T05:08:45.013Z,19.90
2017-05-30T05:11:13.248Z,20.00
2017-05-30T05:13:41.478Z,19.90
2017-05-30T05:16:09.700Z,19.90
2017-05-30T05:18:37.922Z,20.00
2017-05-30T05:21:06.139Z,19.90
2017-05-30T05:23:34.359Z,19.90
2017-05-30T05:26:02.591Z,20.00
2017-05-30T05:28:30.816Z,20.10
2017-05-30T05:30:59.036Z,19.70
2017-05-30T05:33:27.247Z,19.70
2017-05-30T05:35:55.487Z,19.70
2017-05-30T05:38:23.695Z,19.90
2017-05-30T05:40:51.912Z,20.00
2017-05-30T05:43:20.131Z,20.10
2017-05-30T05:45:48.354Z,20.20
2017-05-30T05:48:16.567Z,20.30
2017-05-30T05:50:44.783Z,20.40
2017-05-30T05:53:13.008Z,20.40
2017-05-30T05:55:41.230Z,20.50
2017-05-30T05:58:09.459Z,20.40
2017-05-30T06:00:37.684Z,20.20
2017-05-30T06:03:05.904Z,20.10
2017-05-30T06:05:34.132Z,19.80
2017-05-30T06:08:02.375Z,19.70
2017-05-30T06:10:30.602Z,19.70
2017-05-30T06:12:58.828Z,19.60
2017-05-30T06:15:27.045Z,19.50
2017-05-30T06:17:55.260Z,19.60
2017-05-30T06:20:23.492Z,19.50
2017-05-30T06:22:50.948Z,19.50
2017-05-30T06:25:19.168Z,19.80
2017-05-30T06:27:47.379Z,20.00
2017-05-30T06:30:15.600Z,19.80
2017-05-30T06:32:43.807Z,19.90
2017-05-30T06:35:12.031Z,20.20
2017-05-30T06:37:40.244Z,20.40
2017-05-30T06:40:08.463Z,20.60
2017-05-30T06:42:36.683Z,20.80
2017-05-30T06:45:04.904Z,20.80
2017-05-30T06:47:33.123Z,20.80
2017-05-30T06:50:01.371Z,20.80
2017-05-30T06:52:29.583Z,20.80
2017-05-30T06:54:57.796Z,20.80
2017-05-30T06:57:26.023Z,20.70
2017-05-30T06:59:54.249Z,20.60
2017-05-30T07:02:22.467Z,20.50
2017-05-30T07:04:50.692Z,20.50
2017-05-30T07:07:18.916Z,20.60
2017-05-30T07:09:47.131Z,20.60
2017-05-30T07:12:15.355Z,20.60
2017-05-30T07:14:43.568Z,20.60
2017-05-30T07:17:11.793Z,20.60
2017-05-30T07:19:40.007Z,20.70
2017-05-30T07:22:08.233Z,20.80
2017-05-30T07:24:36.452Z,20.90
2017-05-30T07:27:04.685Z,20.80
2017-05-30T07:29:32.900Z,21.00
2017-05-30T07:32:01.144Z,21.20
2017-05-30T07:34:29.364Z,21.30
2017-05-30T07:36:58.380Z,21.30
2017-05-30T07:39:26.603Z,21.40
2017-05-30T07:41:54.829Z,21.70
2017-05-30T07:44:23.051Z,21.90
2017-05-30T07:46:51.271Z,22.00
2017-05-30T07:49:19.496Z,22.20
2017-05-30T07:51:47.772Z,22.30
2017-05-30T07:54:15.959Z,22.20
2017-05-30T07:56:44.172Z,22.40
2017-05-30T07:59:12.388Z,22.40
2017-05-30T08:01:40.603Z,22.00
2017-05-30T08:04:08.848Z,22.20
2017-05-30T08:06:37.084Z,22.20
2017-05-30T08:09:05.291Z,21.90
2017-05-30T08:11:33.523Z,22.00
2017-05-30T08:14:01.747Z,22.30
2017-05-30T08:16:29.971Z,22.40
2017-05-30T08:18:58.188Z,22.60
2017-05-30T08:21:26.415Z,22.70
2017-05-30T08:23:54.632Z,22.90
2017-05-30T08:26:22.864Z,23.00
2017-05-30T08:28:51.082Z,23.30
2017-05-30T08:31:19.311Z,23.50
2017-05-30T08:33:47.524Z,23.80
2017-05-30T08:36:15.745Z,24.00
2017-05-30T08:38:43.960Z,23.40
2017-05-30T08:41:12.179Z,23.70
2017-05-30T08:43:40.400Z,24.20
2017-05-30T08:46:08.635Z,23.80
2017-05-30T08:48:36.863Z,24.40
2017-05-30T08:51:05.079Z,24.30
2017-05-30T08:53:33.312Z,24.70
2017-05-30T08:56:01.523Z,25.10
2017-05-30T08:58:29.739Z,25.60
2017-05-30T09:00:57.954Z,26.50
2017-05-30T09:03:26.176Z,27.00
2017-05-30T09:05:54.389Z,26.60
2017-05-30T09:08:22.616Z,25.90
2017-05-30T09:10:50.831Z,27.00
2017-05-30T09:13:19.053Z,27.60
2017-05-30T09:15:47.268Z,27.80
2017-05-30T09:18:15.491Z,28.50
2017-05-30T09:20:43.719Z,28.60
2017-05-30T09:23:11.974Z,28.70
2017-05-30T09:25:40.193Z,28.80
2017-05-30T09:28:08.436Z,29.20
2017-05-30T09:30:36.658Z,29.80
2017-05-30T09:33:04.871Z,30.10
2017-05-30T09:35:33.091Z,30.40
2017-05-30T09:38:01.313Z,28.50
2017-05-30T09:40:29.533Z,28.90
2017-05-30T09:42:57.746Z,28.40
2017-05-30T09:45:25.967Z,28.50
2017-05-30T09:47:54.189Z,28.80
2017-05-30T09:50:22.411Z,28.20
2017-05-30T09:52:50.628Z,28.60
2017-05-30T09:55:18.853Z,28.10
2017-05-30T09:57:47.075Z,28.00
2017-05-30T10:00:15.299Z,28.20
2017-05-30T10:02:43.518Z,29.20
2017-05-30T10:05:11.768Z,29.30
2017-05-30T10:07:39.979Z,30.70
2017-05-30T10:10:08.195Z,29.90
2017-05-30T10:12:36.414Z,29.60
2017-05-30T10:15:04.636Z,29.60
2017-05-30T10:17:32.859Z,28.70
2017-05-30T10:20:01.079Z,28.70
2017-05-30T10:22:29.299Z,28.10
2017-05-30T10:24:57.517Z,29.60
2017-05-30T10:27:25.740Z,30.00
2017-05-30T10:29:53.959Z,29.10
2017-05-30T10:32:22.184Z,28.90
2017-05-30T10:34:50.407Z,29.90
2017-05-30T10:37:18.628Z,31.10
2017-05-30T10:39:46.848Z,31.80
2017-05-30T10:42:15.071Z,32.40
2017-05-30T10:44:43.281Z,33.10
2017-05-30T10:47:11.503Z,31.90
2017-05-30T10:49:39.729Z,32.80
2017-05-30T10:52:07.954Z,31.30
2017-05-30T10:54:36.187Z,31.60
2017-05-30T10:57:04.407Z,32.90
2017-05-30T10:59:32.639Z,34.10
2017-05-30T11:02:00.851Z,32.50
2017-05-30T11:04:29.083Z,31.00
2017-05-30T11:06:57.307Z,30.70
2017-05-30T11:09:25.529Z,29.30
2017-05-30T11:11:53.744Z,28.50
2017-05-30T11:14:21.974Z,29.40
2017-05-30T11:16:50.191Z,30.80
2017-05-30T11:19:18.411Z,29.70
2017-05-30T11:21:46.632Z,30.50
2017-05-30T11:24:14.855Z,30.90
2017-05-30T11:26:43.075Z,30.50
2017-05-30T11:29:11.304Z,31.10
2017-05-30T11:31:39.520Z,32.20
2017-05-30T11:34:07.743Z,33.30
2017-05-30T11:36:35.963Z,34.20
2017-05-30T11:39:04.183Z,33.10
2017-05-30T11:41:32.411Z,32.90
2017-05-30T11:44:00.631Z,34.10
2017-05-30T11:46:28.859Z,34.70
2017-05-30T11:48:57.076Z,35.30
2017-05-30T11:51:25.295Z,36.10
2017-05-30T11:53:53.574Z,31.10
2017-05-30T11:56:21.841Z,32.20
2017-05-30T11:58:50.058Z,33.20
2017-05-30T12:01:18.281Z,32.80
2017-05-30T12:03:46.505Z,32.90
2017-05-30T12:06:14.733Z,32.30
2017-05-30T12:08:42.956Z,32.70
2017-05-30T12:11:11.181Z,31.20
2017-05-30T12:13:39.407Z,30.60
2017-05-30T12:16:07.634Z,29.70
2017-05-30T12:18:35.851Z,29.50
2017-05-30T12:21:04.078Z,29.40
2017-05-30T12:23:32.300Z,30.20
2017-05-30T12:26:01.003Z,29.90
2017-05-30T12:28:29.222Z,29.40
2017-05-30T12:30:57.436Z,29.10
2017-05-30T12:33:25.671Z,29.10
2017-05-30T12:35:53.891Z,29.30
2017-05-30T12:38:22.124Z,29.20
2017-05-30T12:40:50.339Z,29.00
2017-05-30T12:43:18.567Z,29.30
2017-05-30T12:45:46.791Z,29.30
2017-05-30T12:48:15.012Z,29.30
2017-05-30T12:50:43.244Z,29.70
2017-05-30T12:53:11.456Z,29.50
2017-05-30T12:55:39.680Z,29.70
2017-05-30T12:58:07.894Z,30.00
2017-05-30T13:00:36.129Z,29.80
2017-05-30T13:03:04.347Z,29.50
2017-05-30T13:05:32.578Z,29.60
2017-05-30T13:08:00.787Z,29.10
2017-05-30T13:10:29.024Z,29.40
2017-05-30T13:12:57.243Z,29.50
2017-05-30T13:15:25.473Z,29.50
2017-05-30T13:17:53.679Z,29.80
2017-05-30T13:20:21.910Z,30.30
2017-05-30T13:22:50.122Z,30.10
2017-05-30T13:25:18.334Z,30.00
2017-05-30T13:27:46.555Z,30.00
2017-05-30T13:30:14.778Z,29.90
2017-05-30T13:32:42.991Z,29.90
2017-05-30T13:35:11.211Z,29.60
2017-05-30T13:37:39.440Z,30.00
2017-05-30T13:40:07.654Z,30.50
2017-05-30T13:42:35.887Z,30.00
2017-05-30T13:45:04.108Z,29.60
2017-05-30T13:47:32.325Z,29.50
2017-05-30T13:50:00.544Z,29.90
2017-05-30T13:52:28.768Z,30.20
2017-05-30T13:54:56.979Z,30.40
2017-05-30T13:57:25.199Z,30.10
2017-05-30T13:59:53.423Z,30.20
2017-05-30T14:02:21.643Z,30.70
2017-05-30T14:04:49.856Z,30.90
2017-05-30T14:07:18.107Z,30.90
2017-05-30T14:09:46.327Z,31.00
2017-05-30T14:12:14.542Z,30.90
2017-05-30T14:14:42.767Z,31.20
2017-05-30T14:17:10.989Z,31.30
2017-05-30T14:19:39.222Z,31.30
2017-05-30T14:22:07.431Z,31.00
2017-05-30T14:24:35.650Z,30.60
2017-05-30T14:27:03.866Z,30.20
2017-05-30T14:29:32.102Z,30.20
2017-05-30T14:32:00.317Z,29.50
2017-05-30T14:34:28.548Z,29.80
2017-05-30T14:36:56.762Z,29.20
2017-05-30T14:39:24.997Z,29.30
2017-05-30T14:41:53.214Z,29.50
2017-05-30T14:44:21.443Z,29.60
2017-05-30T14:46:49.655Z,29.20
2017-05-30T14:49:17.903Z,28.90
2017-05-30T14:51:46.117Z,28.30
2017-05-30T14:54:14.339Z,28.00
2017-05-30T14:56:42.566Z,28.00
2017-05-30T14:59:10.787Z,27.90
2017-05-30T15:01:39.011Z,27.60
2017-05-30T15:04:07.236Z,27.40
2017-05-30T15:06:35.466Z,27.40
2017-05-30T15:09:03.707Z,27.50
2017-05-30T15:11:31.927Z,27.60
2017-05-30T15:14:00.135Z,27.40
2017-05-30T15:16:28.351Z,27.60
2017-05-30T15:18:56.569Z,27.90
2017-05-30T15:21:24.783Z,28.20
2017-05-30T15:23:53.010Z,28.30
2017-05-30T15:26:21.247Z,28.00
2017-05-30T15:28:49.462Z,28.10
2017-05-30T15:31:17.687Z,28.20
2017-05-30T15:33:45.919Z,28.10
2017-05-30T15:36:14.136Z,27.70
2017-05-30T15:38:42.488Z,27.80
2017-05-30T15:41:10.722Z,27.90
2017-05-30T15:43:38.943Z,27.70
2017-05-30T15:46:07.257Z,27.80
2017-05-30T15:48:35.477Z,28.10
2017-05-30T15:51:03.691Z,28.10
2017-05-30T15:53:32.944Z,28.10
2017-05-30T15:56:01.155Z,28.10
2017-05-30T15:58:29.387Z,28.20
2017-05-30T16:00:57.595Z,28.20
2017-05-30T16:03:25.820Z,27.80
2017-05-30T16:05:54.035Z,27.80
2017-05-30T16:08:22.260Z,28.10
2017-05-30T16:10:50.554Z,28.30
2017-05-30T16:13:18.824Z,28.50
2017-05-30T16:15:47.044Z,28.60
2017-05-30T16:18:15.262Z,28.60
2017-05-30T16:20:43.490Z,28.40
2017-05-30T16:23:11.751Z,28.60
2017-05-30T16:25:39.970Z,28.60
2017-05-30T16:28:08.193Z,28.40
2017-05-30T16:30:36.408Z,28.30
2017-05-30T16:33:04.698Z,28.20
2017-05-30T16:35:32.919Z,28.20
2017-05-30T16:38:01.128Z,28.20
2017-05-30T16:40:29.407Z,27.70
2017-05-30T16:42:57.621Z,27.70
2017-05-30T16:45:25.864Z,27.80
2017-05-30T16:47:54.075Z,27.80
2017-05-30T16:50:22.299Z,27.70
2017-05-30T16:52:50.519Z,27.80
2017-05-30T16:55:19.855Z,27.70
2017-05-30T16:57:48.080Z,27.80
2017-05-30T17:00:16.300Z,27.80
2017-05-30T17:02:44.528Z,27.80
2017-05-30T17:05:12.790Z,27.80
2017-05-30T17:07:41.029Z,27.50
2017-05-30T17:10:09.265Z,27.50
2017-05-30T17:12:37.492Z,27.40
2017-05-30T17:15:05.703Z,27.00
2017-05-30T17:17:33.930Z,26.90
2017-05-30T17:20:02.163Z,26.80
2017-05-30T17:22:30.384Z,26.60
2017-05-30T17:24:58.600Z,26.50
2017-05-30T17:27:26.824Z,26.30
2017-05-30T17:29:55.034Z,26.10
2017-05-30T17:32:23.280Z,25.90
2017-05-30T17:34:51.508Z,25.70
2017-05-30T17:37:19.727Z,25.70
2017-05-30T17:39:47.957Z,25.80
2017-05-30T17:42:16.176Z,25.50
2017-05-30T17:44:44.405Z,25.40
2017-05-30T17:47:12.620Z,25.30
2017-05-30T17:49:40.841Z,25.20
2017-05-30T17:52:09.064Z,25.20
2017-05-30T17:54:37.284Z,25.10
2017-05-30T17:57:05.498Z,25.00
2017-05-30T17:59:33.733Z,25.00
2017-05-30T18:02:01.948Z,25.10
2017-05-30T18:04:30.172Z,25.20
2017-05-30T18:06:58.708Z,25.20
2017-05-30T18:09:26.960Z,25.10
2017-05-30T18:11:55.167Z,25.00
2017-05-30T18:14:23.383Z,24.90
2017-05-30T18:16:51.607Z,24.80
2017-05-30T18:19:19.827Z,24.90
2017-05-30T18:21:48.058Z,25.00
2017-05-30T18:24:16.286Z,25.00
2017-05-30T18:26:44.499Z,24.80
2017-05-30T18:29:12.715Z,24.70
2017-05-30T18:31:40.947Z,24.60
2017-05-30T18:34:09.163Z,24.60
2017-05-30T18:36:37.387Z,24.50
2017-05-30T18:39:05.602Z,24.50
2017-05-30T18:41:33.848Z,24.40
2017-05-30T18:44:02.071Z,24.40
2017-05-30T18:46:30.288Z,24.40
2017-05-30T18:48:58.512Z,24.40
2017-05-30T18:51:26.731Z,24.40
2017-05-30T18:53:54.955Z,24.40
2017-05-30T18:56:23.172Z,24.40
2017-05-30T18:58:51.411Z,24.30
2017-05-30T19:01:19.618Z,24.40
2017-05-30T19:03:47.852Z,24.40
2017-05-30T19:06:16.068Z,24.40
2017-05-30T19:08:44.291Z,24.40
2017-05-30T19:11:12.506Z,24.20
2017-05-30T19:13:40.727Z,24.10
2017-05-30T19:16:08.943Z,24.10
2017-05-30T19:18:37.175Z,23.80
2017-05-30T19:21:05.411Z,23.70
2017-05-30T19:23:33.626Z,23.70
2017-05-30T19:26:01.844Z,23.60
2017-05-30T19:28:30.061Z,23.50
2017-05-30T19:30:58.284Z,23.60
2017-05-30T19:33:26.508Z,23.50
2017-05-30T19:35:54.733Z,23.50
2017-05-30T19:38:22.943Z,23.50
2017-05-30T19:40:51.175Z,23.30
2017-05-30T19:43:19.393Z,22.50
2017-05-30T19:45:47.615Z,22.30
2017-05-30T19:48:15.832Z,22.20
2017-05-30T19:50:44.052Z,22.20
2017-05-30T19:53:12.276Z,22.30
2017-05-30T19:55:40.487Z,22.40
2017-05-30T19:58:08.708Z,22.40
2017-05-30T20:00:36.925Z,22.50
2017-05-30T20:03:05.153Z,22.50
2017-05-30T20:05:33.373Z,22.30
2017-05-30T20:08:01.613Z,22.30
2017-05-30T20:10:29.837Z,22.30
2017-05-30T20:12:58.061Z,22.30
2017-05-30T20:15:26.280Z,22.20
2017-05-30T20:17:54.499Z,22.00
2017-05-30T20:20:22.761Z,21.80
2017-05-30T20:22:50.990Z,21.40
2017-05-30T20:25:19.219Z,21.40
2017-05-30T20:27:47.427Z,21.40
2017-05-30T20:30:15.651Z,21.40
2017-05-30T20:32:43.863Z,21.30
2017-05-30T20:35:12.089Z,21.10
2017-05-30T20:37:40.299Z,20.90
2017-05-30T20:40:08.565Z,20.80
2017-05-30T20:42:36.787Z,20.70
2017-05-30T20:45:05.007Z,20.60
2017-05-30T20:47:33.229Z,20.60
2017-05-30T20:50:01.483Z,20.50
2017-05-30T20:52:29.696Z,20.60
2017-05-30T20:54:57.915Z,20.50
2017-05-30T20:57:26.139Z,20.50
2017-05-30T20:59:54.369Z,20.30
2017-05-30T21:02:22.583Z,20.40
2017-05-30T21:04:50.802Z,20.20
2017-05-30T21:07:19.062Z,20.20
2017-05-30T21:09:47.287Z,20.20
2017-05-30T21:12:15.829Z,20.10
2017-05-30T21:14:44.051Z,20.00
2017-05-30T21:17:12.291Z,19.90
2017-05-30T21:19:40.507Z,19.70
2017-05-30T21:22:09.136Z,19.50
2017-05-30T21:24:37.346Z,19.40
2017-05-30T21:27:05.571Z,19.30
2017-05-30T21:29:33.827Z,19.40
2017-05-30T21:32:02.076Z,19.40
2017-05-30T21:34:30.299Z,19.50
2017-05-30T21:36:58.528Z,19.60
2017-05-30T21:39:26.775Z,19.50
2017-05-30T21:41:55.015Z,19.30
2017-05-30T21:44:23.237Z,19.10
2017-05-30T21:46:51.447Z,19.10
2017-05-30T21:49:19.686Z,19.00
2017-05-30T21:51:47.907Z,19.00
2017-05-30T21:54:15.371Z,19.00
2017-05-30T21:56:43.613Z,18.90
2017-05-30T21:59:11.912Z,19.10
2017-05-30T22:01:40.127Z,18.90
2017-05-30T22:04:08.343Z,19.10
2017-05-30T22:06:36.645Z,19.20
2017-05-30T22:09:04.864Z,19.30
2017-05-30T22:11:33.084Z,19.20
2017-05-30T22:14:01.304Z,18.90
2017-05-30T22:16:29.524Z,18.90
2017-05-30T22:18:57.736Z,18.70
2017-05-30T22:21:25.983Z,18.60
2017-05-30T22:23:54.199Z,18.50
2017-05-30T22:26:22.411Z,18.40
2017-05-30T22:28:50.635Z,18.30
2017-05-30T22:31:18.856Z,18.30
2017-05-30T22:33:47.083Z,18.30
2017-05-30T22:36:15.303Z,18.30
2017-05-30T22:38:43.514Z,18.30
2017-05-30T22:41:11.743Z,18.30
2017-05-30T22:43:39.973Z,18.30
2017-05-30T22:46:08.178Z,18.30
2017-05-30T22:48:36.399Z,18.40
2017-05-30T22:51:04.615Z,18.40
2017-05-30T22:53:32.839Z,18.20
2017-05-30T22:56:01.056Z,18.10
2017-05-30T22:58:29.283Z,18.00
2017-05-30T23:00:57.499Z,18.00
2017-05-30T23:03:25.710Z,17.90
2017-05-30T23:05:53.932Z,17.90
2017-05-30T23:08:22.149Z,17.80
2017-05-30T23:10:50.367Z,17.80
2017-05-30T23:13:18.591Z,17.80
2017-05-30T23:15:46.811Z,17.90
2017-05-30T23:18:15.114Z,17.90
2017-05-30T23:20:43.327Z,17.90
2017-05-30T23:23:11.546Z,17.80
2017-05-30T23:25:39.764Z,17.70
2017-05-30T23:28:07.983Z,17.70
2017-05-30T23:30:36.210Z,17.70
2017-05-30T23:33:04.423Z,17.60
2017-05-30T23:35:32.640Z,17.60
2017-05-30T23:38:00.863Z,17.50
2017-05-30T23:40:29.099Z,17.50
2017-05-30T23:42:57.319Z,17.50
2017-05-30T23:45:25.539Z,17.50
2017-05-30T23:47:53.764Z,17.50
2017-05-30T23:50:21.974Z,17.60
2017-05-30T23:52:50.194Z,17.40
2017-05-30T23:55:18.406Z,17.60
2017-05-30T23:57:46.639Z,17.40
